Time;durP1;ratioP1;P1;durP2;ratioP2;P2;SDS_P1;SDS_P2;PMS_P1;PMS_P2;Temp;Humidity;BMP_temperature;BMP_pressure;BME280_temperature;BME280_humidity;BME280_pressure;Samples;Min_cycle;Max_cycle;Signal;HPM_P1;HPM_P2
2021/01/08 00:01:15;;;;;;;19.97;9.80;;;1.80;99.90;;;-0.14;92.10;100835.16;5039372;28;20124;-39
2021/01/08 00:03:42;;;;;;;19.58;9.15;;;1.70;99.90;;;-0.16;92.59;100832.63;5055515;28;20051;-39
2021/01/08 00:06:10;;;;;;;19.90;9.70;;;1.70;99.90;;;-0.21;92.49;100828.69;5039430;28;20128;-40
2021/01/08 00:08:37;;;;;;;20.83;9.70;;;1.70;99.90;;;-0.25;92.66;100833.50;5039541;28;20045;-39
2021/01/08 00:11:06;;;;;;;21.42;9.85;;;1.70;99.90;;;-0.26;93.02;100823.75;5039194;28;20513;-40
2021/01/08 00:13:34;;;;;;;18.85;9.68;;;1.60;99.90;;;-0.28;92.91;100820.34;5039403;28;20036;-40
2021/01/08 00:16:05;;;;;;;18.48;9.05;;;1.60;99.90;;;-0.28;92.70;100830.25;5055823;28;20090;-40
2021/01/08 00:18:32;;;;;;;19.20;8.98;;;1.60;99.90;;;-0.30;92.87;100827.69;5039703;28;20049;-39
2021/01/08 00:20:59;;;;;;;22.07;10.30;;;1.60;99.90;;;-0.32;93.11;100829.66;5039110;28;20040;-40
2021/01/08 00:23:26;;;;;;;22.53;10.83;;;1.60;99.90;;;-0.33;93.29;100827.97;5038828;28;20041;-39
2021/01/08 00:25:54;;;;;;;21.00;9.98;;;1.60;99.90;;;-0.35;93.02;100838.00;5055362;28;20044;-40
2021/01/08 00:28:22;;;;;;;19.15;9.63;;;1.60;99.90;;;-0.32;93.36;100827.84;5055290;28;20044;-40
2021/01/08 00:30:49;;;;;;;19.08;9.27;;;1.50;99.90;;;-0.34;93.65;100826.28;5021570;28;20037;-40
2021/01/08 00:33:16;;;;;;;21.05;9.70;;;1.50;99.90;;;-0.34;93.42;100831.63;5022552;28;20098;-40
2021/01/08 00:35:44;;;;;;;17.33;9.38;;;1.50;99.90;;;-0.34;93.61;100827.13;5038875;28;20064;-40
2021/01/08 00:38:12;;;;;;;21.17;9.30;;;1.60;99.90;;;-0.32;93.10;100833.22;5038978;28;20084;-39
2021/01/08 00:40:39;;;;;;;18.35;8.98;;;1.60;99.90;;;-0.33;93.42;100828.84;5038781;28;20584;-39
2021/01/08 00:43:07;;;;;;;18.40;9.20;;;1.60;99.90;;;-0.35;93.56;100825.44;5038893;28;20041;-39
2021/01/08 00:45:34;;;;;;;19.88;9.20;;;1.60;99.90;;;-0.33;93.33;100823.47;5038646;28;20110;-40
2021/01/08 00:48:03;;;;;;;18.27;8.82;;;1.60;99.90;;;-0.31;93.59;100826.84;5038927;28;20123;-40
2021/01/08 00:50:31;;;;;;;17.67;8.48;;;1.50;99.90;;;-0.27;93.66;100835.44;5022733;28;20090;-40
2021/01/08 00:52:59;;;;;;;19.15;9.25;;;1.60;99.90;;;-0.21;93.53;100828.69;5022495;28;20051;-40
2021/01/08 00:55:26;;;;;;;18.75;8.18;;;1.60;99.90;;;-0.22;93.43;100824.31;5038585;28;20088;-40
2021/01/08 00:58:02;;;;;;;15.98;7.65;;;1.60;99.90;;;-0.28;93.12;100820.34;5056267;28;20044;-40
2021/01/08 01:00:29;;;;;;;16.67;8.73;;;1.60;99.90;;;-0.24;93.53;100826.28;5055058;28;20040;-40
2021/01/08 01:02:57;;;;;;;17.70;8.77;;;1.60;99.90;;;-0.27;93.40;100826.56;5071189;28;20144;-39
2021/01/08 01:05:24;;;;;;;20.05;8.50;;;1.60;99.90;;;-0.23;93.01;100823.47;5054943;28;20048;-39
2021/01/08 01:07:51;;;;;;;16.10;8.20;;;1.70;99.90;;;-0.24;93.00;100827.13;5038320;28;20047;-39
2021/01/08 01:10:19;;;;;;;19.33;8.57;;;1.60;99.90;;;-0.29;93.42;100837.41;5038538;28;20060;-40
2021/01/08 01:12:46;;;;;;;18.40;8.57;;;1.60;99.90;;;-0.31;93.38;100832.22;5037495;28;20595;-40
2021/01/08 01:15:17;;;;;;;18.05;8.07;;;1.60;99.90;;;-0.28;93.59;100830.25;5038831;28;20041;-40
2021/01/08 01:17:44;;;;;;;16.55;8.10;;;1.60;99.90;;;-0.31;93.72;100836.72;5071179;28;20041;-39
2021/01/08 01:20:14;;;;;;;17.13;8.38;;;1.60;99.90;;;-0.29;93.77;100834.75;5070989;28;20056;-40
2021/01/08 01:22:41;;;;;;;;;;;1.60;99.90;;;-0.27;93.90;100840.81;5038406;28;20529;-40
2021/01/08 01:25:10;;;;;;;18.05;8.80;;;1.60;99.90;;;-0.29;93.89;100829.38;5070685;28;19946;-40
2021/01/08 01:27:38;;;;;;;15.90;8.02;;;1.60;99.90;;;-0.28;93.71;100841.78;5070578;28;20067;-40
2021/01/08 01:30:08;;;;;;;19.35;9.35;;;1.60;99.90;;;-0.27;93.67;100835.44;5054307;28;20063;-40
2021/01/08 01:32:36;;;;;;;20.73;9.63;;;1.60;99.90;;;-0.26;93.99;100836.31;5070640;28;20066;-40
2021/01/08 01:35:05;;;;;;;21.48;9.23;;;1.60;99.90;;;-0.28;93.78;100847.16;5021085;28;20036;-40
2021/01/08 01:37:33;;;;;;;20.90;9.50;;;1.60;99.90;;;-0.26;93.95;100845.22;5053972;28;20128;-40
2021/01/08 01:40:01;;;;;;;19.58;8.48;;;1.60;99.90;;;-0.27;93.88;100842.66;5037539;28;20136;-40
2021/01/08 01:42:28;;;;;;;;;;;1.60;99.90;;;-0.22;94.11;100849.31;5021535;28;20052;-40
2021/01/08 01:44:56;;;;;;;20.30;9.02;;;1.60;99.90;;;-0.23;93.66;100849.44;5053784;28;19927;-39
2021/01/08 01:47:25;;;;;;;21.55;10.32;;;1.60;99.90;;;-0.23;93.72;100849.44;5053860;28;20052;-40
2021/01/08 01:49:53;;;;;;;19.95;9.77;;;1.60;99.90;;;-0.26;94.21;100853.25;5037515;28;20396;-40
2021/01/08 01:52:21;;;;;;;17.45;8.18;;;1.60;99.90;;;-0.22;94.37;100857.34;5070375;28;20055;-40
2021/01/08 01:54:48;;;;;;;;;;;1.60;99.90;;;-0.23;94.48;100852.09;5070765;28;20521;-40
2021/01/08 01:57:16;;;;;;;19.80;9.30;;;1.70;99.90;;;-0.23;94.08;100852.97;5054061;28;20000;-40
2021/01/08 01:59:44;;;;;;;20.27;8.80;;;1.70;99.90;;;-0.24;94.10;100858.47;5053603;28;20151;-40
2021/01/08 02:02:25;;;;;;;17.33;8.65;;;1.70;99.90;;;-0.25;94.25;100860.31;5037323;28;20052;-40
2021/01/08 02:04:56;;;;;;;17.13;9.00;;;1.60;99.90;;;-0.22;94.63;100853.81;5054075;28;20116;-40
2021/01/08 02:07:29;;;;;;;18.02;8.75;;;1.60;99.90;;;-0.25;94.24;100854.09;5070399;28;20072;-40
2021/01/08 02:09:59;;;;;;;17.58;8.15;;;1.60;99.90;;;-0.20;94.28;100860.72;5037842;28;20065;-40
2021/01/08 02:12:29;;;;;;;16.55;8.52;;;1.70;99.90;;;-0.18;94.61;100869.47;5053281;28;20414;-40
2021/01/08 02:15:01;;;;;;;16.40;8.27;;;1.70;99.90;;;-0.18;94.44;100864.13;5053238;28;20037;-40
2021/01/08 02:17:30;;;;;;;13.73;7.15;;;1.70;99.90;;;-0.17;94.48;100865.81;5054228;28;20090;-40
2021/01/08 02:20:05;;;;;;;15.65;7.03;;;1.70;99.90;;;-0.16;94.54;100870.19;5053375;28;20131;-40
2021/01/08 02:22:47;;;;;;;16.88;7.15;;;1.70;99.90;;;-0.14;94.79;100864.66;5070190;28;20040;-39
2021/01/08 02:25:28;;;;;;;12.73;6.50;;;1.70;99.90;;;-0.14;94.78;100867.34;5069876;28;20556;-40
2021/01/08 02:28:06;;;;;;;12.25;5.82;;;1.70;99.90;;;-0.14;94.67;100870.03;5054311;28;20037;-39
2021/01/08 02:30:36;;;;;;;11.82;5.85;;;1.80;99.90;;;-0.15;94.52;100874.56;5053759;28;20086;-40
2021/01/08 02:33:05;;;;;;;11.98;5.65;;;1.70;99.90;;;-0.13;94.72;100871.75;5053204;28;20045;-40
2021/01/08 02:35:34;;;;;;;11.68;5.65;;;1.70;99.90;;;-0.12;94.61;100875.25;5053314;28;20064;-40
2021/01/08 02:38:03;;;;;;;9.27;5.07;;;1.70;99.90;;;-0.15;95.07;100869.19;5071086;28;20459;-40
2021/01/08 02:40:31;;;;;;;11.80;5.38;;;1.70;99.90;;;-0.13;94.82;100873.56;5053504;28;20498;-40
2021/01/08 02:43:03;;;;;;;12.20;5.35;;;1.70;99.90;;;-0.12;94.99;100876.13;5037114;28;20076;-40
2021/01/08 02:45:32;;;;;;;10.48;5.55;;;1.70;99.90;;;-0.10;94.50;100879.50;5020730;28;20048;-40
2021/01/08 02:48:00;;;;;;;10.68;5.35;;;1.80;99.90;;;-0.12;94.72;100878.81;5069741;28;20473;-40
2021/01/08 02:50:28;;;;;;;11.55;5.55;;;1.80;99.90;;;-0.13;94.46;100876.25;5036658;28;20045;-40
2021/01/08 02:53:10;;;;;;;10.38;5.03;;;1.70;99.90;;;-0.11;94.49;100876.97;5020654;28;20044;-40
2021/01/08 02:55:45;;;;;;;10.80;5.45;;;1.80;99.90;;;-0.09;94.71;100883.88;5073481;28;20040;-40
2021/01/08 02:58:14;;;;;;;11.07;5.20;;;1.80;99.90;;;-0.12;94.71;100884.16;5041629;28;20127;-40
2021/01/08 03:00:43;;;;;;;11.65;5.55;;;1.80;99.90;;;-0.11;94.62;100882.31;5056832;28;20050;-40
2021/01/08 03:03:11;;;;;;;10.07;5.10;;;1.80;99.90;;;-0.10;94.39;100892.06;5056797;28;20052;-40
2021/01/08 03:05:40;;;;;;;11.30;5.43;;;1.80;99.90;;;-0.09;94.41;100885.69;5040593;28;20477;-40
2021/01/08 03:08:09;;;;;;;10.48;5.07;;;1.80;99.90;;;-0.09;94.63;100891.94;5040398;28;20047;-40
2021/01/08 03:10:36;;;;;;;12.35;5.68;;;1.80;99.90;;;-0.09;94.90;100894.63;5040434;28;20050;-40
2021/01/08 03:13:08;;;;;;;10.13;5.45;;;1.80;99.90;;;-0.10;94.57;100892.91;5023116;28;20041;-40
2021/01/08 03:15:36;;;;;;;11.43;5.53;;;1.80;99.90;;;-0.08;95.10;100899.00;5056666;28;20051;-40
2021/01/08 03:18:04;;;;;;;11.38;5.68;;;1.80;99.90;;;-0.09;94.62;100894.63;5056995;28;20116;-40
2021/01/08 03:20:32;;;;;;;11.68;5.85;;;1.80;99.90;;;-0.08;95.24;100887.41;5073608;28;20052;-40
2021/01/08 03:23:03;;;;;;;10.73;5.55;;;1.80;99.90;;;-0.06;95.33;100897.00;5040565;28;20044;-40
2021/01/08 03:25:31;;;;;;;11.82;6.50;;;1.80;99.90;;;-0.08;95.00;100898.13;5041741;28;20048;-40
2021/01/08 03:27:59;;;;;;;9.68;5.28;;;1.80;99.90;;;-0.06;94.97;100898.84;5073139;28;20120;-40
2021/01/08 03:30:26;;;;;;;12.02;6.15;;;1.80;99.90;;;-0.07;94.68;100892.63;5040203;28;20048;-40
2021/01/08 03:32:54;;;;;;;11.45;5.53;;;1.80;99.90;;;-0.06;94.79;100890.78;5056680;28;20040;-40
2021/01/08 03:35:22;;;;;;;12.00;5.82;;;1.80;99.90;;;-0.08;94.62;100890.09;5007286;28;20055;-40
2021/01/08 03:37:49;;;;;;;10.75;5.72;;;1.80;99.90;;;-0.09;94.60;100891.06;5040218;28;20115;-40
2021/01/08 03:40:17;;;;;;;12.82;5.93;;;1.80;99.90;;;-0.10;95.23;100895.59;5039907;28;20465;-40
2021/01/08 03:42:44;;;;;;;13.90;6.37;;;1.80;99.90;;;-0.11;95.00;100896.59;5040111;28;20048;-40
2021/01/08 03:45:12;;;;;;;11.85;5.78;;;1.80;99.90;;;-0.11;94.89;100890.38;5039648;28;20461;-40
2021/01/08 03:47:39;;;;;;;12.27;6.43;;;1.80;99.90;;;-0.10;94.77;100900.97;5039674;28;20525;-40
2021/01/08 03:50:09;;;;;;;13.93;6.32;;;1.80;99.90;;;-0.09;94.74;100899.13;5072613;28;20118;-40
2021/01/08 03:52:36;;;;;;;12.57;6.10;;;1.80;99.90;;;-0.10;94.77;100902.78;5039864;28;20033;-40
2021/01/08 03:55:05;;;;;;;12.70;6.38;;;1.80;99.90;;;-0.10;95.05;100906.34;5023179;28;20503;-40
2021/01/08 03:57:33;;;;;;;12.02;6.38;;;1.80;99.90;;;-0.12;94.68;100900.25;5055918;28;20123;-40
2021/01/08 04:00:00;;;;;;;12.68;6.32;;;1.80;99.90;;;-0.10;94.56;100908.16;5039737;28;20044;-40
2021/01/08 04:02:27;;;;;;;13.05;6.13;;;1.80;99.90;;;-0.08;95.01;100903.50;5039598;28;20037;-40
2021/01/08 04:04:55;;;;;;;12.15;5.68;;;1.80;99.90;;;-0.07;94.81;100899.81;5022913;28;20042;-40
2021/01/08 04:07:22;;;;;;;12.25;5.93;;;1.80;99.90;;;-0.08;94.12;100895.44;5022922;28;20115;-40
2021/01/08 04:09:50;;;;;;;10.77;5.73;;;1.80;99.90;;;-0.10;94.34;100905.47;5022880;28;20044;-40
2021/01/08 04:12:17;;;;;;;12.63;6.18;;;1.80;99.90;;;-0.09;94.52;100904.47;5022763;28;20449;-40
2021/01/08 04:14:44;;;;;;;12.13;5.70;;;1.80;99.90;;;-0.08;94.32;100900.81;5022668;28;20044;-40
2021/01/08 04:17:12;;;;;;;13.50;6.23;;;1.80;99.90;;;-0.11;94.51;100899.28;5039176;28;20465;-40
2021/01/08 04:19:39;;;;;;;12.37;5.87;;;1.80;99.90;;;-0.08;94.70;100903.50;5022779;28;20044;-40
2021/01/08 04:22:06;;;;;;;13.32;6.43;;;1.80;99.90;;;-0.07;94.58;100902.50;5022836;28;20048;-40
2021/01/08 04:24:34;;;;;;;12.40;6.00;;;1.80;99.90;;;-0.01;94.52;100909.97;5022441;28;20068;-40
2021/01/08 04:27:01;;;;;;;12.85;5.97;;;1.80;99.90;;;-0.03;94.51;100907.47;5038928;28;20483;-40
2021/01/08 04:29:29;;;;;;;11.07;5.82;;;1.80;99.90;;;-0.04;94.89;100904.91;5039336;28;20044;-40
2021/01/08 04:31:56;;;;;;;12.13;5.80;;;1.80;99.90;;;-0.05;94.42;100905.88;5022504;28;20063;-39
2021/01/08 04:34:24;;;;;;;12.68;5.95;;;1.80;99.90;;;-0.07;94.37;100906.03;5023589;28;20036;-40
2021/01/08 04:36:51;;;;;;;11.23;5.55;;;1.80;99.90;;;-0.07;94.78;100905.19;5039526;28;20040;-40
2021/01/08 04:39:19;;;;;;;10.63;5.32;;;1.80;99.90;;;-0.05;94.49;100908.56;5022651;28;20464;-40
2021/01/08 04:41:46;;;;;;;13.40;6.32;;;1.80;99.90;;;-0.05;94.77;100908.56;5038544;28;20032;-40
2021/01/08 04:44:15;;;;;;;11.15;5.22;;;1.80;99.90;;;-0.05;94.55;100912.13;5038416;28;20071;-40
2021/01/08 04:46:47;;;;;;;12.00;5.15;;;1.80;99.90;;;-0.02;94.65;100911.84;5054888;28;20067;-40
2021/01/08 04:49:15;;;;;;;11.20;5.35;;;1.80;99.90;;;-0.02;94.66;100906.47;5038891;28;20051;-40
2021/01/08 04:51:46;;;;;;;9.60;4.65;;;1.80;99.90;;;0.00;94.45;100911.72;5055115;28;20318;-40
2021/01/08 04:54:15;;;;;;;11.43;5.30;;;1.80;99.90;;;-0.01;94.81;100912.66;5072494;28;20407;-40
2021/01/08 04:56:46;;;;;;;10.25;4.88;;;1.80;99.90;;;-0.01;94.79;100916.22;5038451;28;20503;-40
2021/01/08 04:59:14;;;;;;;10.10;4.70;;;1.90;99.90;;;0.03;94.90;100914.09;5071430;28;20049;-40
2021/01/08 05:01:42;;;;;;;11.18;5.10;;;1.90;99.90;;;0.03;94.57;100913.25;5088081;28;20045;-40
2021/01/08 05:04:10;;;;;;;11.32;5.22;;;1.90;99.90;;;0.04;94.70;100915.78;5038449;28;20499;-40
2021/01/08 05:06:38;;;;;;;11.40;5.37;;;1.90;99.90;;;0.06;94.90;100923.69;5038566;28;20044;-40
2021/01/08 05:09:05;;;;;;;10.60;5.20;;;1.90;99.90;;;0.04;94.72;100915.78;5038194;28;20052;-40
2021/01/08 05:11:33;;;;;;;9.48;4.75;;;1.90;99.90;;;0.04;94.64;100918.47;5038050;28;20451;-40
2021/01/08 05:14:04;;;;;;;10.18;4.63;;;1.90;99.90;;;0.04;94.69;100918.47;5054563;28;20132;-39
2021/01/08 05:16:32;;;;;;;10.10;4.72;;;1.90;99.90;;;0.07;94.81;100920.88;5070554;28;20048;-40
2021/01/08 05:19:04;;;;;;;10.27;5.00;;;1.90;99.90;;;0.08;94.89;100919.88;5072170;28;20534;-39
2021/01/08 05:21:33;;;;;;;11.60;5.25;;;1.90;99.90;;;0.05;94.75;100925.53;5054057;28;20052;-40
2021/01/08 05:24:03;;;;;;;8.55;4.38;;;1.90;99.90;;;0.08;95.08;100924.38;5037829;28;20044;-40
2021/01/08 05:26:31;;;;;;;9.07;4.50;;;1.90;99.90;;;0.12;95.17;100926.66;5070795;28;20056;-40
2021/01/08 05:29:08;;;;;;;9.10;4.22;;;1.90;99.90;;;0.09;95.10;100918.03;5021508;28;20040;-40
2021/01/08 05:31:35;;;;;;;9.00;4.50;;;2.00;99.90;;;0.12;94.68;100931.16;5054115;28;20506;-40
2021/01/08 05:34:03;;;;;;;9.17;4.70;;;2.00;99.90;;;0.12;95.07;100939.22;5037995;28;20414;-40
2021/01/08 05:36:31;;;;;;;11.32;5.22;;;2.00;99.90;;;0.12;94.63;100929.34;5071844;28;20438;-40
2021/01/08 05:39:00;;;;;;;10.57;5.60;;;2.00;99.90;;;0.12;95.06;100929.34;5021465;28;20045;-40
2021/01/08 05:41:31;;;;;;;10.52;4.90;;;2.00;99.90;;;0.10;95.09;100933.16;5070630;28;20047;-40
2021/01/08 05:44:01;;;;;;;10.70;5.35;;;2.00;99.90;;;0.12;95.17;100932.03;5070349;28;20052;-40
2021/01/08 05:46:34;;;;;;;9.75;5.13;;;2.00;99.90;;;0.13;95.02;100936.41;5070438;28;20049;-40
2021/01/08 05:49:07;;;;;;;11.00;5.25;;;2.00;99.90;;;0.11;95.24;100934.84;5070458;28;20043;-40
2021/01/08 05:51:45;;;;;;;9.23;4.60;;;2.00;99.90;;;0.12;95.34;100944.59;5071077;28;20099;-40
2021/01/08 05:54:13;;;;;;;10.30;4.90;;;2.00;99.90;;;0.13;95.21;100936.41;5053644;28;20071;-40
2021/01/08 05:56:42;;;;;;;11.52;5.35;;;2.00;99.90;;;0.16;95.23;100937.97;5070554;28;20414;-40
2021/01/08 05:59:09;;;;;;;14.45;6.40;;;2.00;99.90;;;0.18;95.43;100943.19;5070415;28;20074;-40
2021/01/08 06:01:39;;;;;;;11.33;5.63;;;2.00;99.90;;;0.17;95.22;100942.34;5037462;28;20090;-40
2021/01/08 06:04:08;;;;;;;11.93;5.82;;;2.00;99.90;;;0.18;95.57;100940.50;5070121;28;20044;-40
2021/01/08 06:06:46;;;;;;;12.23;5.70;;;2.00;99.90;;;0.24;95.31;100947.97;5070393;28;20040;-40
2021/01/08 06:09:15;;;;;;;12.07;5.70;;;2.10;99.90;;;0.22;95.25;100947.28;5070154;28;20090;-40
2021/01/08 06:11:45;;;;;;;10.77;5.78;;;2.00;99.90;;;0.22;94.94;100949.94;5086671;28;20041;-39
2021/01/08 06:14:17;;;;;;;15.88;6.20;;;2.00;99.90;;;0.20;94.82;100946.56;5053292;28;20136;-40
2021/01/08 06:16:47;;;;;;;12.45;6.18;;;2.00;99.90;;;0.21;95.24;100950.94;5070386;28;20040;-40
2021/01/08 06:19:16;;;;;;;11.73;5.80;;;2.10;99.90;;;0.21;95.52;100953.63;5070122;28;20105;-39
2021/01/08 06:21:46;;;;;;;12.15;5.85;;;2.10;99.90;;;0.20;95.02;100949.25;5070101;28;20392;-40
2021/01/08 06:24:29;;;;;;;11.32;5.53;;;2.00;99.90;;;0.18;94.89;100952.09;5053225;28;20521;-40
2021/01/08 06:26:57;;;;;;;12.18;5.55;;;2.00;99.90;;;0.18;94.82;100952.09;5006655;28;20055;-40
2021/01/08 06:29:29;;;;;;;10.88;5.38;;;2.00;99.90;;;0.23;95.22;100957.88;5056094;28;20078;-40
2021/01/08 06:32:09;;;;;;;12.57;6.05;;;2.10;99.90;;;0.20;94.84;100960.84;5074150;28;20036;-40
2021/01/08 06:34:46;;;;;;;10.20;5.45;;;2.10;99.90;;;0.17;94.86;100952.22;5073844;28;20041;-40
2021/01/08 06:37:18;;;;;;;10.13;5.28;;;2.00;99.90;;;0.18;94.59;100961.97;5074058;28;20067;-40
2021/01/08 06:39:46;;;;;;;10.88;5.40;;;2.00;99.90;;;0.18;94.69;100965.50;5057904;28;20493;-40
2021/01/08 06:42:27;;;;;;;10.95;5.20;;;2.00;99.90;;;0.13;95.01;100959.69;5057490;28;20576;-40
2021/01/08 06:44:57;;;;;;;9.90;5.18;;;2.00;99.90;;;0.14;94.81;100969.47;5075143;28;20048;-40
2021/01/08 06:47:29;;;;;;;9.80;5.00;;;2.00;99.90;;;0.14;94.73;100981.03;5075197;28;20068;-40
2021/01/08 06:50:02;;;;;;;8.60;4.05;;;2.00;99.90;;;0.11;94.50;100975.94;5073723;28;20045;-40
2021/01/08 06:52:42;;;;;;;10.18;4.80;;;1.90;99.90;;;0.09;94.78;100977.06;5073673;28;20067;-40
2021/01/08 06:55:17;;;;;;;9.05;4.38;;;1.90;99.90;;;0.08;94.70;100983.41;5090578;28;20114;-40
2021/01/08 06:57:52;;;;;;;9.85;5.07;;;1.90;99.90;;;0.05;94.50;100984.56;5073644;28;20081;-40
2021/01/08 07:00:28;;;;;;;10.13;4.63;;;1.90;99.90;;;0.07;94.71;100984.41;5074769;28;20055;-40
2021/01/08 07:03:05;;;;;;;10.40;5.05;;;1.90;99.90;;;0.09;94.75;100988.66;5073467;28;20049;-40
2021/01/08 07:05:33;;;;;;;10.18;4.90;;;1.90;99.90;;;0.05;94.75;100997.97;5073391;28;20059;-40
2021/01/08 07:08:00;;;;;;;9.98;4.78;;;1.90;99.90;;;0.08;94.64;101002.19;5057567;28;20075;-40
2021/01/08 07:10:31;;;;;;;10.13;4.70;;;1.90;99.90;;;0.06;94.62;101006.84;5074644;28;20055;-40
2021/01/08 07:12:58;;;;;;;11.45;5.03;;;1.90;99.90;;;0.06;94.45;101015.78;5074210;28;20476;-40
2021/01/08 07:15:28;;;;;;;10.40;4.97;;;1.90;99.90;;;0.06;94.61;101014.91;5040199;28;20502;-40
2021/01/08 07:17:55;;;;;;;9.95;4.93;;;1.90;99.90;;;0.07;94.99;101014.78;5090132;28;20115;-40
2021/01/08 07:20:23;;;;;;;10.30;4.80;;;1.90;99.90;;;0.08;94.82;101012.94;5073098;28;20115;-40
2021/01/08 07:22:55;;;;;;;10.60;4.93;;;1.90;99.90;;;0.06;94.89;101021.13;5055713;28;20042;-40
2021/01/08 07:25:25;;;;;;;10.02;4.68;;;1.90;99.90;;;0.13;94.89;101024.94;5055204;28;20123;-40
2021/01/08 07:27:53;;;;;;;10.10;4.93;;;1.90;99.90;;;0.09;94.84;101028.91;5071813;28;20094;-40
2021/01/08 07:30:22;;;;;;;11.82;5.50;;;1.90;99.90;;;0.12;94.99;101033.13;5072052;28;20077;-40
2021/01/08 07:32:52;;;;;;;10.82;5.00;;;2.00;99.90;;;0.09;95.01;101034.28;5071934;28;20454;-40
2021/01/08 07:35:32;;;;;;;9.00;4.18;;;2.00;99.90;;;0.13;94.92;101034.81;5088357;28;20120;-40
2021/01/08 07:38:18;;;;;;;9.98;5.15;;;2.00;99.90;;;0.12;95.14;101044.72;5071775;28;20044;-40
2021/01/08 07:40:57;;;;;;;9.43;4.88;;;2.00;99.90;;;0.12;94.73;101047.41;5088186;28;20060;-40
2021/01/08 07:43:33;;;;;;;11.15;5.05;;;2.00;99.90;;;0.14;94.60;101049.97;5072890;28;20049;-40
2021/01/08 07:46:04;;;;;;;10.40;4.82;;;2.00;99.90;;;0.16;95.00;101047.13;5073004;28;20052;-40
2021/01/08 07:48:35;;;;;;;9.55;5.00;;;2.00;99.90;;;0.14;94.39;101055.34;5072749;28;20518;-40
2021/01/08 07:51:07;;;;;;;10.52;4.47;;;2.00;99.90;;;0.16;95.01;101056.03;5071769;28;20067;-40
2021/01/08 07:53:46;;;;;;;10.68;4.85;;;2.00;99.90;;;0.14;95.01;101060.69;5071274;28;20481;-40
2021/01/08 07:56:25;;;;;;;10.63;4.82;;;2.00;99.90;;;0.12;94.40;101063.50;5071537;28;20510;-40
2021/01/08 07:59:04;;;;;;;10.35;5.07;;;2.00;99.90;;;0.16;94.61;101073.97;5072696;28;20052;-40
2021/01/08 08:01:32;;;;;;;;;;;2.00;99.90;;;0.19;94.42;101071.00;5088707;28;20201;-40
2021/01/08 08:04:03;;;;;;;11.98;4.72;;;2.00;99.90;;;0.14;94.65;101080.31;5071351;28;19999;-40
2021/01/08 08:06:33;;;;;;;11.02;4.60;;;2.00;99.90;;;0.16;94.57;101080.19;5072589;28;20534;-40
2021/01/08 08:09:04;;;;;;;10.38;4.95;;;2.00;99.90;;;0.18;94.77;101085.41;5087873;28;20045;-40
2021/01/08 08:11:35;;;;;;;12.25;4.80;;;2.00;99.90;;;0.19;94.94;101085.28;5054941;28;20132;-40
2021/01/08 08:14:05;;;;;;;11.75;4.90;;;2.00;99.90;;;0.20;94.48;101086.13;5072434;28;20045;-40
2021/01/08 08:16:34;;;;;;;13.27;4.93;;;2.00;99.90;;;0.20;94.90;101086.97;5072541;28;20040;-39
2021/01/08 08:19:03;;;;;;;11.63;5.25;;;2.10;99.90;;;0.28;94.79;101088.97;5071226;28;20524;-40
2021/01/08 08:21:31;;;;;;;12.15;5.78;;;2.10;99.90;;;0.26;95.03;101096.28;5056519;28;904674;-40
2021/01/08 08:24:02;;;;;;;12.73;5.82;;;2.10;99.90;;;0.30;94.43;101105.78;5072514;28;20112;-40
2021/01/08 08:26:32;;;;;;;11.27;5.65;;;2.10;99.90;;;0.31;94.63;101110.16;5073424;28;20143;-40
2021/01/08 08:29:12;;;;;;;12.25;5.80;;;2.10;99.90;;;0.34;94.71;101111.72;5039527;28;20063;-40
2021/01/08 08:31:45;;;;;;;12.35;5.20;;;2.20;99.90;;;0.36;95.00;101107.06;5071850;28;20060;-40
2021/01/08 08:34:24;;;;;;;13.35;5.72;;;2.20;99.90;;;0.41;94.76;101110.19;5071997;28;20119;-40
2021/01/08 08:36:51;;;;;;;11.20;5.25;;;2.20;99.90;;;0.41;94.98;101112.88;5073050;28;20127;-40
2021/01/08 08:39:18;;;;;;;15.25;6.10;;;2.20;99.90;;;0.48;94.61;101116.69;5072967;28;20072;-40
2021/01/08 08:41:48;;;;;;;12.52;6.07;;;2.20;99.90;;;0.51;94.71;101119.09;5071644;28;20045;-40
2021/01/08 08:44:18;;;;;;;12.20;5.75;;;2.30;99.90;;;0.53;94.88;101124.31;5072574;28;20048;-40
2021/01/08 08:46:50;;;;;;;13.57;6.13;;;2.30;99.90;;;0.55;95.23;101120.50;5072781;28;20592;-40
2021/01/08 08:49:32;;;;;;;13.48;5.30;;;2.30;99.90;;;0.62;94.86;101126.19;5072908;28;20465;-40
2021/01/08 08:52:02;;;;;;;11.07;4.80;;;2.40;99.90;;;0.69;95.05;101129.16;5070731;28;20048;-40
2021/01/08 08:54:38;;;;;;;13.43;5.38;;;2.40;99.90;;;0.73;95.10;101135.94;5088031;28;20123;-40
2021/01/08 08:57:05;;;;;;;11.88;5.20;;;2.50;99.90;;;0.77;94.85;101132.00;5071381;28;20076;-40
2021/01/08 08:59:43;;;;;;;10.65;5.30;;;2.50;99.90;;;0.81;94.90;101129.88;5055151;28;20051;-40
2021/01/08 09:02:25;;;;;;;15.02;5.80;;;2.50;99.90;;;0.85;94.40;101134.81;5072738;28;20434;-40
2021/01/08 09:04:56;;;;;;;11.48;5.00;;;2.60;99.90;;;0.86;94.67;101136.50;5072246;28;20052;-40
2021/01/08 09:07:50;;;;;;;11.02;5.07;;;2.60;99.90;;;0.92;94.49;101145.84;5071904;28;20045;-40
2021/01/08 09:10:32;;;;;;;9.30;4.45;;;2.70;99.90;;;0.92;94.25;101142.28;5057465;28;20040;-40
2021/01/08 09:13:11;;;;;;;10.85;4.88;;;2.70;99.90;;;0.95;94.53;101140.19;5087630;28;20036;-40
2021/01/08 09:16:08;;;;;;;9.63;4.90;;;2.70;99.90;;;1.04;94.62;101146.56;5054221;28;20041;-40
2021/01/08 09:18:52;;;;;;;10.43;4.65;;;2.80;99.90;;;1.06;94.32;101139.19;5072268;28;20131;-40
2021/01/08 09:21:48;;;;;;;11.00;5.05;;;2.80;99.90;;;1.08;94.24;101141.75;5070704;28;20097;-40
2021/01/08 09:24:36;;;;;;;12.82;5.80;;;2.80;99.90;;;1.09;94.24;101152.34;5071848;28;20577;-40
2021/01/08 09:27:11;;;;;;;11.32;5.35;;;2.90;99.90;;;1.09;94.15;101146.97;5070994;28;20045;-40
2021/01/08 09:29:39;;;;;;;11.93;5.20;;;2.80;99.90;;;1.07;93.93;101151.66;5070601;28;20470;-40
2021/01/08 09:32:10;;;;;;;10.55;5.28;;;2.90;99.90;;;1.08;94.14;101163.25;5054815;28;20048;-40
2021/01/08 09:34:38;;;;;;;12.32;5.63;;;2.80;99.90;;;1.08;93.45;101160.56;5054119;28;20036;-40
2021/01/08 09:37:16;;;;;;;11.80;5.55;;;2.80;99.90;;;1.06;93.63;101168.75;5037983;28;20032;-40
2021/01/08 09:39:44;;;;;;;13.95;5.93;;;2.90;99.90;;;1.08;93.69;101161.41;5072313;28;20517;-40
2021/01/08 09:42:12;;;;;;;15.25;6.00;;;2.80;99.90;;;1.06;93.38;101167.91;5071854;28;20574;-40
2021/01/08 09:44:41;;;;;;;13.68;6.28;;;2.80;99.90;;;1.04;93.21;101177.94;5070642;28;20036;-40
2021/01/08 09:47:13;;;;;;;13.70;6.18;;;2.80;99.90;;;1.07;93.55;101175.00;5072101;28;20360;-40
2021/01/08 09:49:48;;;;;;;15.68;6.15;;;2.80;99.90;;;1.04;93.08;101173.44;5071568;28;20045;-40
2021/01/08 09:52:15;;;;;;;12.75;6.13;;;2.80;99.90;;;1.01;93.36;101176.41;5070448;28;20568;-40
2021/01/08 09:54:50;;;;;;;12.32;5.65;;;2.80;99.90;;;1.03;93.52;101184.31;5070323;28;20071;-40
2021/01/08 09:57:30;;;;;;;11.48;5.35;;;2.80;99.90;;;1.02;93.60;101182.63;5071723;28;20044;-40
2021/01/08 10:00:00;;;;;;;10.93;5.38;;;2.80;99.90;;;1.02;93.59;101188.00;5070918;28;20166;-40
2021/01/08 10:02:40;;;;;;;12.65;5.57;;;2.80;99.90;;;1.06;93.50;101189.41;5071656;28;20057;-40
2021/01/08 10:05:18;;;;;;;12.88;6.13;;;2.80;99.90;;;1.07;93.07;101191.13;5071331;28;20071;-40
2021/01/08 10:07:48;;;;;;;12.38;5.35;;;2.80;99.90;;;1.08;93.27;101190.97;5071532;28;20045;-40
2021/01/08 10:10:37;;;;;;;11.30;4.88;;;2.80;99.90;;;1.15;93.08;101194.78;5087004;28;20503;-40
2021/01/08 10:13:13;;;;;;;11.27;5.32;;;2.90;99.90;;;1.19;93.18;101195.34;5070248;28;20040;-40
2021/01/08 10:15:46;;;;;;;11.90;5.68;;;2.90;99.90;;;1.23;93.07;101196.75;5070174;28;20523;-40
2021/01/08 10:18:16;;;;;;;9.50;5.00;;;3.00;99.90;;;1.32;93.70;101186.13;5070511;28;20036;-40
2021/01/08 10:20:58;;;;;;;10.40;5.10;;;3.00;99.90;;;1.38;93.23;101194.50;5086757;28;20045;-40
2021/01/08 10:23:26;;;;;;;10.35;4.57;;;3.10;99.90;;;1.42;93.12;101184.31;5086642;28;20076;-40
2021/01/08 10:26:04;;;;;;;10.00;4.88;;;3.10;99.90;;;1.45;93.65;101194.78;5053528;28;20036;-40
2021/01/08 10:28:31;;;;;;;10.27;5.13;;;3.20;99.90;;;1.51;93.06;101194.19;5071462;28;20064;-40
2021/01/08 10:30:58;;;;;;;10.98;5.30;;;3.20;99.90;;;1.53;93.27;101194.06;5070146;28;20047;-40
2021/01/08 10:33:29;;;;;;;10.82;4.85;;;3.20;99.90;;;1.53;93.18;101186.00;5070888;28;20090;-41